CheckWX is a tool to help pilots better visualize weather data.  It is not intended as a substitute for an official pre-flight weather briefing.

01:21:24 UTC

KBWG METAR
Bowling Green-Warren County Regional Airport
Bowling Green, Kentucky, USA
Current

28 mins ago

KBWG 150053Z AUTO 00000KT 10SM CLR 14/08 A3009 RMK AO2 SLP190 T01440083
Observed
Oct-15 @ 00:53 UTC
Visibility
10 SM
Flight Rules
VFR
Cloud Levels
  • Clear skies
Temperature
14°C / 57°F
Dewpoint
C / 46°F
Humidity
67%
Altimeter
30.09" Hg
Pressure
1018.92 hPa
Previous

1 hour ago

KBWG 142353Z AUTO 00000KT 10SM CLR 16/08 A3009 RMK AO2 SLP188 T01610078 10233 20161 53004
Observed
Oct-14 @ 23:53 UTC
Visibility
10 SM
Flight Rules
VFR
Cloud Levels
  • Clear skies
Temperature
16°C / 61°F
Dewpoint
C / 46°F
Humidity
59%
Altimeter
30.09" Hg
Pressure
1018.92 hPa
Previous

2 hours ago

KBWG 142253Z AUTO 13003KT 10SM CLR 19/07 A3009 RMK AO2 SLP187 T01940067
Observed
Oct-14 @ 22:53 UTC
Wind
  • 130° at 3 KTS
Visibility
10 SM
Flight Rules
VFR
Cloud Levels
  • Clear skies
Temperature
19°C / 66°F
Dewpoint
C / 45°F
Humidity
46%
Altimeter
30.09" Hg
Pressure
1018.92 hPa